Time;durP1;ratioP1;P1;durP2;ratioP2;P2;SDS_P1;SDS_P2;PMS_P1;PMS_P2;Temp;Humidity;BMP_temperature;BMP_pressure;BME280_temperature;BME280_humidity;BME280_pressure;Samples;Min_cycle;Max_cycle;Signal;HPM_P1;HPM_P2
2023/09/17 00:01:59;;;;;;;5.85;3.60;;;21.40;91.00;;;;;;4912463;29;20218;-77
2023/09/17 00:04:25;;;;;;;7.32;4.07;;;21.40;91.10;;;;;;4920146;29;20103;-77
2023/09/17 00:06:50;;;;;;;6.60;3.92;;;21.30;91.40;;;;;;4931283;29;20031;-76
2023/09/17 00:09:17;;;;;;;4.88;3.20;;;21.20;91.70;;;;;;4947884;29;20023;-77
2023/09/17 00:11:43;;;;;;;6.55;4.15;;;21.10;91.30;;;;;;4948159;29;20027;-78
2023/09/17 00:14:09;;;;;;;4.95;3.85;;;21.10;91.70;;;;;;4930611;29;20039;-77
2023/09/17 00:16:38;;;;;;;6.55;4.00;;;21.00;91.80;;;;;;4947912;29;20019;-76
2023/09/17 00:19:04;;;;;;;6.45;4.38;;;21.00;91.80;;;;;;4947805;29;20092;-77
2023/09/17 00:21:29;;;;;;;6.30;3.80;;;20.90;92.00;;;;;;4948222;29;20043;-77
2023/09/17 00:24:04;;;;;;;5.60;3.95;;;20.80;92.10;;;;;;4948219;29;20023;-77
2023/09/17 00:26:30;;;;;;;7.63;4.35;;;20.80;92.20;;;;;;4947779;29;20042;-76
2023/09/17 00:28:56;;;;;;;4.68;3.47;;;20.70;92.40;;;;;;4947905;29;20035;-77
2023/09/17 06:52:11;;;;;;;5.95;4.50;;;20.50;99.90;;;;;;5418866;23;20252;-76
2023/09/17 06:54:37;;;;;;;5.85;4.30;;;20.60;99.90;;;;;;4985000;28;20053;-77
2023/09/17 06:57:09;;;;;;;5.20;4.28;;;20.70;99.90;;;;;;4970720;28;20043;-77
2023/09/17 06:59:46;;;;;;;5.22;4.32;;;20.80;99.90;;;;;;4954682;28;20027;-77
2023/09/17 07:02:12;;;;;;;5.28;4.30;;;20.90;99.90;;;;;;4987749;28;20027;-78
2023/09/17 07:04:42;;;;;;;7.40;4.78;;;20.90;99.90;;;;;;4954289;28;20041;-77
2023/09/17 07:07:08;;;;;;;5.15;4.35;;;21.00;99.90;;;;;;4987876;28;20038;-77
2023/09/17 07:09:34;;;;;;;6.32;4.20;;;21.10;99.90;;;;;;4987292;28;20046;-76
2023/09/17 07:12:00;;;;;;;6.75;4.10;;;21.20;99.90;;;;;;4987866;28;20030;-76
2023/09/17 07:14:25;;;;;;;7.28;4.55;;;21.20;99.90;;;;;;4968801;28;20050;-79
2023/09/17 07:16:51;;;;;;;7.10;4.55;;;21.20;99.90;;;;;;4951831;29;20216;-75
2023/09/17 07:19:17;;;;;;;6.35;4.30;;;21.20;99.90;;;;;;4970143;29;20031;-78
2023/09/17 07:21:42;;;;;;;6.18;4.20;;;21.20;99.90;;;;;;4968545;29;20023;-78
2023/09/17 07:24:09;;;;;;;5.25;3.92;;;21.10;99.90;;;;;;4968616;29;20038;-77
2023/09/17 07:26:35;;;;;;;7.40;4.28;;;21.10;99.90;;;;;;4984480;28;20031;-77
2023/09/17 07:29:01;;;;;;;5.95;4.32;;;21.20;99.90;;;;;;4987412;28;20027;-75
2023/09/17 07:31:26;;;;;;;5.57;4.30;;;21.30;99.90;;;;;;4987175;28;20090;-77
2023/09/17 07:33:52;;;;;;;5.25;4.20;;;21.40;99.90;;;;;;4987014;28;20027;-76
2023/09/17 07:36:21;;;;;;;5.68;4.47;;;21.50;99.90;;;;;;4987156;28;20022;-78
2023/09/17 07:38:47;;;;;;;7.65;4.70;;;21.50;99.90;;;;;;4956121;29;20054;-77
2023/09/17 07:41:15;;;;;;;6.07;4.30;;;21.50;99.90;;;;;;4951635;28;20034;-79
2023/09/17 07:43:53;;;;;;;6.13;4.32;;;21.50;99.90;;;;;;4950629;29;20301;-78
2023/09/17 07:46:26;;;;;;;5.88;4.43;;;21.50;99.60;;;;;;4955719;28;20027;-77
2023/09/17 07:48:55;;;;;;;7.47;4.82;;;21.50;99.60;;;;;;4973835;28;20389;-78
2023/09/17 07:51:27;;;;;;;;;;;21.30;99.90;;;;;;4963900;29;20198;-79
2023/09/17 07:53:59;;;;;;;7.07;5.00;;;21.40;99.90;;;;;;4948671;29;20272;-80
2023/09/17 07:56:46;;;;;;;6.57;4.70;;;21.40;99.90;;;;;;4929888;29;20035;-78
2023/09/17 07:59:12;;;;;;;7.55;5.20;;;21.40;99.90;;;;;;4936110;29;20027;-78
2023/09/17 08:01:38;;;;;;;5.60;4.82;;;21.40;99.70;;;;;;4933349;29;20232;-77
2023/09/17 08:04:03;;;;;;;7.75;4.80;;;21.50;99.50;;;;;;4967419;29;20217;-77
2023/09/17 08:06:34;;;;;;;5.95;4.70;;;21.50;99.50;;;;;;4966877;28;20200;-79
2023/09/17 08:09:01;;;;;;;5.88;4.57;;;21.50;99.50;;;;;;4950242;29;20039;-78
2023/09/17 08:11:29;;;;;;;5.85;4.80;;;21.60;99.40;;;;;;4966709;29;20075;-78
2023/09/17 08:13:55;;;;;;;7.20;4.82;;;21.70;99.30;;;;;;4967404;29;20015;-77
2023/09/17 08:16:21;;;;;;;7.30;4.65;;;21.90;99.10;;;;;;4967247;29;20033;-79
2023/09/17 08:18:47;;;;;;;9.57;4.15;;;22.00;98.70;;;;;;4966671;29;20212;-77
2023/09/17 08:21:12;;;;;;;8.23;4.45;;;22.10;98.40;;;;;;4967366;29;20288;-77
2023/09/17 08:23:41;;;;;;;6.15;4.03;;;22.20;98.20;;;;;;4966610;29;20244;-77
2023/09/17 08:26:08;;;;;;;6.22;4.30;;;22.40;97.90;;;;;;4966881;29;20405;-76
2023/09/17 08:28:34;;;;;;;6.50;4.50;;;22.60;97.40;;;;;;4932479;29;20049;-79
2023/09/17 08:31:00;;;;;;;5.25;4.15;;;22.80;97.00;;;;;;4964981;29;20085;-76
2023/09/17 08:33:26;;;;;;;8.65;4.50;;;23.00;96.60;;;;;;4966320;29;20054;-79
2023/09/17 08:35:51;;;;;;;4.75;3.72;;;23.10;96.20;;;;;;4966906;29;20090;-78
2023/09/17 08:38:18;;;;;;;6.85;4.40;;;23.20;96.00;;;;;;4933826;29;20081;-79
2023/09/17 08:40:44;;;;;;;7.55;4.22;;;23.30;95.70;;;;;;4966722;29;20098;-79
2023/09/17 08:43:13;;;;;;;5.38;3.70;;;23.40;95.50;;;;;;4949798;29;20022;-80
2023/09/17 08:45:41;;;;;;;6.57;4.30;;;23.60;95.30;;;;;;4965848;29;20018;-80
2023/09/17 08:48:07;;;;;;;5.97;3.80;;;23.80;94.70;;;;;;4966635;29;20057;-79
2023/09/17 08:50:40;;;;;;;5.43;3.80;;;24.00;94.40;;;;;;4949263;29;20205;-83
2023/09/17 08:53:57;;;;;;;6.55;3.83;;;24.10;94.00;;;;;;4933623;29;20288;-78
2023/09/17 08:56:28;;;;;;;5.65;3.72;;;24.20;93.80;;;;;;4930533;29;20300;-77
2023/09/17 08:59:09;;;;;;;6.07;3.78;;;24.40;93.60;;;;;;4947719;29;20024;-79
2023/09/17 09:01:39;;;;;;;5.95;3.63;;;24.50;93.10;;;;;;4946660;29;20067;-79
2023/09/17 09:04:09;;;;;;;6.82;3.70;;;24.70;93.00;;;;;;4947603;29;20016;-77
2023/09/17 09:06:36;;;;;;;7.38;3.13;;;24.80;92.80;;;;;;4947023;29;20046;-78
2023/09/17 09:09:05;;;;;;;7.65;3.80;;;24.90;92.30;;;;;;4930481;29;20031;-81
2023/09/17 09:11:37;;;;;;;6.63;3.13;;;25.10;92.00;;;;;;4914524;29;20036;-80
2023/09/17 09:14:07;;;;;;;4.70;3.20;;;25.20;91.70;;;;;;4931868;29;20051;-79
2023/09/17 09:16:33;;;;;;;6.15;3.58;;;25.30;91.20;;;;;;4946640;29;20317;-77
2023/09/17 09:19:00;;;;;;;5.03;3.10;;;25.50;91.00;;;;;;4947534;29;20083;-77
2023/09/17 09:21:31;;;;;;;4.93;3.00;;;25.70;90.60;;;;;;4930530;29;20031;-77
2023/09/17 09:24:05;;;;;;;4.38;3.10;;;25.90;90.30;;;;;;4922374;29;20083;-77
2023/09/17 09:26:41;;;;;;;4.63;3.20;;;26.00;89.40;;;;;;4944032;29;20039;-78
2023/09/17 09:29:32;;;;;;;4.63;2.80;;;26.20;88.50;;;;;;4933392;29;20153;-80
2023/09/17 09:31:59;;;;;;;5.03;3.33;;;26.30;87.80;;;;;;4929829;29;20067;-78
2023/09/17 09:34:25;;;;;;;6.50;3.30;;;26.50;87.90;;;;;;4946622;29;20032;-78
2023/09/17 09:36:51;;;;;;;16.98;7.70;;;26.60;87.00;;;;;;4944716;29;20027;-77
2023/09/17 09:39:18;;;;;;;11.63;4.32;;;26.70;87.10;;;;;;4926413;29;20051;-76
2023/09/17 09:41:48;;;;;;;7.68;4.47;;;26.90;86.50;;;;;;4894934;29;20313;-78
2023/09/17 09:44:17;;;;;;;12.40;7.43;;;26.90;85.40;;;;;;4927608;29;20306;-78
2023/09/17 09:46:45;;;;;;;7.88;3.83;;;27.00;84.00;;;;;;4912469;29;20020;-76
2023/09/17 09:49:14;;;;;;;7.30;3.20;;;27.10;84.60;;;;;;4929603;29;20035;-79
2023/09/17 09:51:40;;;;;;;7.50;3.30;;;27.20;83.00;;;;;;4933790;29;20062;-78
2023/09/17 09:54:05;;;;;;;5.00;2.65;;;27.30;83.70;;;;;;4967032;29;20031;-79
2023/09/17 09:56:52;;;;;;;5.72;2.58;;;27.30;82.40;;;;;;4937783;29;20058;-80
2023/09/17 09:59:23;;;;;;;8.18;2.80;;;27.40;81.80;;;;;;4974686;29;20085;-80
2023/09/17 10:01:52;;;;;;;5.07;2.53;;;27.50;81.00;;;;;;4961650;29;20031;-79
2023/09/17 10:04:25;;;;;;;5.03;2.50;;;27.60;80.30;;;;;;4943203;29;20216;-79
2023/09/17 10:06:51;;;;;;;5.72;2.42;;;27.70;80.00;;;;;;4932742;29;20182;-77
2023/09/17 10:09:20;;;;;;;5.32;2.45;;;27.80;79.30;;;;;;4932963;29;20251;-79
2023/09/17 10:11:55;;;;;;;5.82;2.22;;;27.80;78.20;;;;;;4949043;29;20019;-79
2023/09/17 10:14:33;;;;;;;5.10;2.20;;;27.90;78.40;;;;;;4948653;29;20043;-78
2023/09/17 10:17:01;;;;;;;4.60;2.55;;;28.00;77.50;;;;;;4961669;29;20030;-78
2023/09/17 10:19:36;;;;;;;5.55;2.17;;;28.10;76.90;;;;;;4933110;29;20051;-80
2023/09/17 10:22:59;;;;;;;6.20;2.30;;;28.20;76.40;;;;;;4931133;29;20393;-82
2023/09/17 10:25:35;;;;;;;4.68;2.10;;;28.50;76.20;;;;;;4929090;29;20079;-78
2023/09/17 10:28:05;;;;;;;6.43;2.30;;;28.60;75.20;;;;;;4945962;29;20094;-79
2023/09/17 10:30:43;;;;;;;8.82;2.25;;;28.80;74.20;;;;;;4945820;29;20055;-78
2023/09/17 10:33:20;;;;;;;7.00;2.28;;;29.00;73.40;;;;;;4928937;29;20027;-79
2023/09/17 10:35:56;;;;;;;5.30;1.90;;;29.20;73.80;;;;;;4928260;29;20031;-81
2023/09/17 10:38:30;;;;;;;3.83;1.85;;;29.30;72.00;;;;;;4930414;29;20121;-79
2023/09/17 10:41:12;;;;;;;5.82;1.90;;;29.40;71.10;;;;;;4964883;29;20031;-77
2023/09/17 10:43:40;;;;;;;6.45;2.25;;;29.60;70.90;;;;;;4964426;29;20074;-77
2023/09/17 10:46:19;;;;;;;7.45;2.05;;;29.70;70.80;;;;;;4947500;28;20034;-78
2023/09/17 10:48:46;;;;;;;8.15;2.00;;;30.00;69.70;;;;;;4950721;28;20074;-81
2023/09/17 10:51:17;;;;;;;3.97;1.40;;;30.20;69.70;;;;;;4965659;28;20045;-79
2023/09/17 10:54:17;;;;;;;4.25;1.80;;;30.40;68.80;;;;;;4928172;29;20118;-80
2023/09/17 10:56:45;;;;;;;5.80;2.10;;;30.70;68.60;;;;;;4901780;29;20164;-79
2023/09/17 10:59:14;;;;;;;7.05;2.30;;;30.90;67.40;;;;;;4892115;29;20037;-77
2023/09/17 11:01:52;;;;;;;6.32;1.90;;;31.30;66.30;;;;;;4905665;29;20040;-82
2023/09/17 11:04:22;;;;;;;5.40;1.70;;;31.80;66.00;;;;;;4906201;29;20043;-78
2023/09/17 11:06:54;;;;;;;7.18;2.30;;;32.20;65.10;;;;;;4890010;29;20274;-81
2023/09/17 11:09:55;;;;;;;8.45;2.83;;;32.50;64.10;;;;;;4905612;29;20032;-81
2023/09/17 11:12:23;;;;;;;6.00;1.95;;;32.40;63.40;;;;;;4890484;29;20222;-78
2023/09/17 11:14:51;;;;;;;4.65;1.70;;;32.90;62.80;;;;;;4890007;29;20072;-80
2023/09/17 11:17:47;;;;;;;4.20;1.45;;;33.20;61.40;;;;;;4906097;29;20025;-82
2023/09/17 11:20:22;;;;;;;5.30;1.70;;;33.90;60.50;;;;;;4890197;29;20032;-79
2023/09/17 11:22:57;;;;;;;4.88;1.50;;;34.70;59.60;;;;;;4889786;29;20045;-80
2023/09/17 11:25:45;;;;;;;5.00;1.35;;;34.90;59.00;;;;;;4889691;29;20039;-77
2023/09/17 11:28:13;;;;;;;3.90;1.50;;;34.70;58.10;;;;;;4905748;29;20041;-77
2023/09/17 11:31:09;;;;;;;4.88;1.48;;;35.10;57.50;;;;;;4905326;29;20052;-80
2023/09/17 11:33:38;;;;;;;6.68;1.38;;;36.10;57.00;;;;;;4912485;29;20058;-80
2023/09/17 11:36:07;;;;;;;3.30;1.15;;;36.40;55.90;;;;;;4948293;29;20035;-80
2023/09/17 11:38:33;;;;;;;5.38;1.38;;;36.20;54.50;;;;;;4943998;29;20043;-76
2023/09/17 11:41:15;;;;;;;4.55;1.23;;;36.20;56.00;;;;;;4928937;29;20356;-78
2023/09/17 11:43:46;;;;;;;3.80;1.17;;;37.00;54.40;;;;;;4948779;29;20035;-78
2023/09/17 11:46:14;;;;;;;4.72;1.35;;;37.30;53.90;;;;;;4949715;29;20047;-78
2023/09/17 11:48:41;;;;;;;;;;;37.20;53.50;;;;;;4968224;29;20065;-79
2023/09/17 11:51:22;;;;;;;6.03;1.70;;;37.60;53.50;;;;;;4967679;28;20073;-77
2023/09/17 11:54:02;;;;;;;4.93;1.50;;;37.50;54.00;;;;;;4933504;29;20042;-77
2023/09/17 11:56:35;;;;;;;4.47;1.30;;;37.30;54.00;;;;;;4958865;29;20306;-79
2023/09/17 11:59:23;;;;;;;6.45;1.63;;;37.70;52.90;;;;;;4948101;29;20027;-77
2023/09/17 12:02:20;;;;;;;4.20;1.42;;;36.80;54.00;;;;;;4947934;29;20094;-78
2023/09/17 12:04:46;;;;;;;3.65;1.35;;;36.90;53.70;;;;;;4928435;29;20092;-79
2023/09/17 12:07:12;;;;;;;6.82;1.50;;;36.70;53.40;;;;;;4931622;29;20322;-78
2023/09/17 12:10:00;;;;;;;6.45;1.40;;;36.60;54.50;;;;;;4948417;29;20028;-78
2023/09/17 12:12:28;;;;;;;3.67;1.25;;;36.60;54.10;;;;;;4948522;29;20027;-78
2023/09/17 12:19:03;;;;;;;9.43;1.92;;;36.30;53.40;;;;;;4948669;29;20165;-79
2023/09/17 12:21:59;;;;;;;7.20;1.85;;;36.10;53.80;;;;;;4915554;29;20031;-79
2023/09/17 12:25:31;;;;;;;4.65;1.20;;;36.10;53.70;;;;;;4948314;29;20069;-77
2023/09/17 12:27:36;;;;;;;4.93;1.58;;;36.00;54.00;;;;;;4923455;29;20194;-78
2023/09/17 12:30:08;;;;;;;4.15;1.30;;;36.60;53.90;;;;;;4947465;29;20052;-77
2023/09/17 12:32:43;;;;;;;2.92;1.20;;;36.60;53.60;;;;;;4930455;29;20082;-79
2023/09/17 12:35:15;;;;;;;4.93;1.30;;;36.80;53.30;;;;;;4930626;29;20027;-78
2023/09/17 12:37:47;;;;;;;3.78;1.38;;;37.30;53.30;;;;;;4934565;29;20082;-80
2023/09/17 12:40:28;;;;;;;5.25;1.30;;;37.80;52.50;;;;;;4966573;29;20039;-78
2023/09/17 12:43:08;;;;;;;6.07;1.58;;;37.80;51.90;;;;;;4951137;29;20022;-79
2023/09/17 12:45:38;;;;;;;3.58;1.30;;;37.80;52.20;;;;;;4966720;29;20055;-78
2023/09/17 12:48:18;;;;;;;5.38;1.40;;;38.20;51.70;;;;;;4965936;29;20053;-77
2023/09/17 12:50:47;;;;;;;5.63;1.55;;;38.90;51.40;;;;;;4965940;28;20031;-79
2023/09/17 12:53:18;;;;;;;7.07;2.53;;;39.60;50.60;;;;;;4965345;28;20061;-79
2023/09/17 12:55:44;;;;;;;5.32;1.60;;;40.30;50.10;;;;;;4964583;29;20035;-79
2023/09/17 12:58:10;;;;;;;4.28;1.23;;;39.60;49.40;;;;;;4949763;29;20074;-77
2023/09/17 13:00:37;;;;;;;4.80;1.40;;;39.70;50.00;;;;;;4964833;29;20106;-78
2023/09/17 13:03:15;;;;;;;5.07;1.60;;;40.00;49.50;;;;;;4967791;28;20133;-78
2023/09/17 13:05:41;;;;;;;5.32;1.60;;;40.10;49.50;;;;;;4985531;28;20074;-78
2023/09/17 13:08:08;;;;;;;3.95;1.45;;;40.30;49.20;;;;;;4985857;28;20061;-77
2023/09/17 13:10:39;;;;;;;4.00;1.30;;;40.90;48.30;;;;;;4985708;28;20038;-78
2023/09/17 13:13:06;;;;;;;2.83;0.95;;;41.50;48.40;;;;;;4952170;28;20033;-77
2023/09/17 13:15:41;;;;;;;3.60;1.20;;;41.40;47.30;;;;;;4952172;28;20030;-76
2023/09/17 13:18:07;;;;;;;4.45;1.40;;;42.60;47.30;;;;;;4984876;28;20022;-78
2023/09/17 13:20:38;;;;;;;4.85;1.52;;;43.30;46.40;;;;;;4968338;28;20065;-77
2023/09/17 13:23:04;;;;;;;5.75;1.35;;;42.00;47.10;;;;;;4984670;28;20018;-77
2023/09/17 13:25:35;;;;;;;3.92;1.50;;;42.00;46.60;;;;;;4985208;28;20049;-79
2023/09/17 13:28:19;;;;;;;2.92;1.23;;;42.30;46.80;;;;;;4984817;28;20038;-75
2023/09/17 13:30:51;;;;;;;4.05;1.20;;;43.70;45.90;;;;;;4951881;28;20162;-77
2023/09/17 13:33:17;;;;;;;4.72;1.38;;;44.80;46.00;;;;;;4985196;28;20042;-77
2023/09/17 13:35:53;;;;;;;4.47;1.40;;;45.40;44.40;;;;;;4967908;28;20015;-79
2023/09/17 13:38:22;;;;;;;4.07;1.43;;;45.60;44.50;;;;;;4939167;29;20070;-77
2023/09/17 13:40:50;;;;;;;5.63;1.40;;;45.20;43.90;;;;;;4946157;29;20059;-77
2023/09/17 13:43:16;;;;;;;5.15;1.70;;;44.20;44.30;;;;;;4946831;29;20317;-77
2023/09/17 13:45:52;;;;;;;4.88;1.23;;;44.40;45.00;;;;;;4929409;29;20078;-78
2023/09/17 13:48:22;;;;;;;3.45;1.13;;;44.20;44.40;;;;;;4945664;29;20031;-78
2023/09/17 13:50:49;;;;;;;2.78;1.17;;;44.30;44.30;;;;;;4948378;28;20056;-76
2023/09/17 13:53:16;;;;;;;5.25;1.40;;;43.70;44.50;;;;;;4965398;29;20070;-78
2023/09/17 13:55:42;;;;;;;3.15;1.33;;;44.50;44.20;;;;;;4964252;29;20057;-77
2023/09/17 13:58:08;;;;;;;2.95;1.15;;;45.00;43.80;;;;;;4963578;29;20035;-76
2023/09/17 14:00:33;;;;;;;4.95;1.65;;;44.80;43.50;;;;;;4965540;29;20313;-75
2023/09/17 14:03:13;;;;;;;3.83;1.30;;;44.40;43.90;;;;;;4964832;28;20220;-77
2023/09/17 14:05:51;;;;;;;4.82;1.50;;;43.30;44.30;;;;;;4965308;29;20186;-78
2023/09/17 14:08:39;;;;;;;3.35;1.35;;;42.90;45.50;;;;;;4964547;29;20102;-78
2023/09/17 14:11:05;;;;;;;4.05;1.00;;;44.10;45.20;;;;;;4964925;29;20419;-76
2023/09/17 14:13:33;;;;;;;5.70;1.48;;;44.80;44.30;;;;;;4964140;29;20027;-75
2023/09/17 14:15:59;;;;;;;3.80;1.10;;;46.00;43.80;;;;;;4964924;29;20039;-76
2023/09/17 14:18:28;;;;;;;3.78;1.42;;;46.60;43.10;;;;;;4965101;29;20102;-78
2023/09/17 14:20:55;;;;;;;4.82;1.35;;;47.30;43.70;;;;;;4947679;29;20031;-78
2023/09/17 14:23:22;;;;;;;3.30;1.10;;;47.60;42.70;;;;;;4965148;29;20074;-78
2023/09/17 14:25:54;;;;;;;4.07;1.20;;;48.40;41.50;;;;;;4948397;29;20023;-77
2023/09/17 14:28:23;;;;;;;2.95;1.00;;;47.70;41.90;;;;;;4964040;29;20070;-76
2023/09/17 14:30:48;;;;;;;3.33;1.08;;;47.80;41.80;;;;;;4963320;29;20066;-77
2023/09/17 14:33:18;;;;;;;3.97;1.23;;;47.00;40.90;;;;;;4965363;29;20035;-76
2023/09/17 14:35:47;;;;;;;4.53;1.15;;;46.70;42.10;;;;;;4964225;29;20035;-77
2023/09/17 14:38:58;;;;;;;4.72;1.00;;;45.70;41.60;;;;;;4965799;29;20023;-77
2023/09/17 14:41:33;;;;;;;3.92;1.10;;;44.90;41.60;;;;;;4968514;29;20047;-75
2023/09/17 14:43:59;;;;;;;5.50;1.20;;;43.30;43.00;;;;;;4936459;29;20035;-76
2023/09/17 14:46:25;;;;;;;3.90;1.20;;;43.60;43.50;;;;;;4966494;29;20367;-74
2023/09/17 14:48:54;;;;;;;4.15;1.15;;;43.40;43.10;;;;;;4934751;29;20190;-76
2023/09/17 14:51:28;;;;;;;4.78;1.30;;;43.80;42.60;;;;;;4952320;29;20028;-76
2023/09/17 14:53:55;;;;;;;5.22;1.05;;;43.70;43.10;;;;;;4934033;29;20035;-76
2023/09/17 14:56:21;;;;;;;4.72;1.10;;;44.00;43.00;;;;;;4951242;29;20074;-75
2023/09/17 14:58:55;;;;;;;5.30;1.17;;;45.10;43.10;;;;;;4948283;29;20024;-78
2023/09/17 15:01:31;;;;;;;4.28;0.90;;;46.00;41.40;;;;;;4928778;29;20034;-78
2023/09/17 15:03:57;;;;;;;3.03;0.95;;;46.40;41.00;;;;;;4945483;29;20043;-77
2023/09/17 15:06:23;;;;;;;3.03;1.08;;;46.30;41.40;;;;;;4928959;29;20032;-77
2023/09/17 15:08:54;;;;;;;3.23;0.83;;;46.60;40.60;;;;;;4945469;29;20043;-77
2023/09/17 15:11:26;;;;;;;3.08;1.10;;;46.00;41.20;;;;;;4945777;29;20047;-77
2023/09/17 15:13:53;;;;;;;3.53;1.10;;;45.00;41.50;;;;;;4928169;29;20099;-78
2023/09/17 15:16:20;;;;;;;3.38;1.10;;;44.70;41.90;;;;;;4948124;29;20031;-77
2023/09/17 15:18:52;;;;;;;;;;;44.20;41.80;;;;;;4949723;29;20246;-78
2023/09/17 15:21:38;;;;;;;4.57;1.20;;;43.90;42.30;;;;;;4948742;29;19974;-78
2023/09/17 15:24:04;;;;;;;3.05;0.90;;;44.20;42.10;;;;;;4931574;29;20229;-77
2023/09/17 15:26:31;;;;;;;3.35;0.90;;;44.60;41.40;;;;;;4932286;29;20047;-80
2023/09/17 15:29:10;;;;;;;4.57;1.15;;;45.50;40.90;;;;;;4931317;29;20059;-77
2023/09/17 15:35:22;;;;;;;3.90;1.00;;;45.30;41.40;;;;;;4947973;29;20079;-77
2023/09/17 15:38:02;;;;;;;3.83;1.20;;;43.70;41.20;;;;;;4953785;29;20388;-76
2023/09/17 15:40:28;;;;;;;4.75;1.38;;;43.00;41.70;;;;;;4968029;29;20368;-78
2023/09/17 15:42:55;;;;;;;4.72;0.98;;;43.10;42.30;;;;;;4967715;29;20044;-78
2023/09/17 15:45:31;;;;;;;4.50;1.30;;;42.00;43.10;;;;;;4933723;29;20389;-76
2023/09/17 15:48:09;;;;;;;4.05;1.10;;;42.10;42.60;;;;;;4947404;29;20031;-76
2023/09/17 15:51:04;;;;;;;3.13;0.93;;;42.10;42.80;;;;;;4967826;29;20035;-76
2023/09/17 15:53:31;;;;;;;4.05;1.25;;;42.00;42.70;;;;;;4959193;29;20058;-77
2023/09/17 15:56:00;;;;;;;4.18;1.02;;;43.40;42.10;;;;;;4967261;29;20254;-77
2023/09/17 15:58:36;;;;;;;5.38;1.45;;;43.40;41.80;;;;;;4948261;29;20250;-78
2023/09/17 16:01:04;;;;;;;3.70;1.20;;;43.10;42.00;;;;;;4954150;29;20071;-77
2023/09/17 16:03:42;;;;;;;7.30;1.05;;;43.30;41.50;;;;;;4950716;29;20375;-77
2023/09/17 16:06:08;;;;;;;6.30;1.77;;;42.00;42.40;;;;;;4934594;29;20039;-78
2023/09/17 16:08:34;;;;;;;3.50;1.08;;;40.60;43.60;;;;;;4934652;29;20094;-78
2023/09/17 16:11:03;;;;;;;4.25;1.30;;;39.80;44.80;;;;;;4949171;29;20058;-78
2023/09/17 16:13:28;;;;;;;5.38;1.30;;;38.90;45.20;;;;;;4956099;29;20024;-78
2023/09/17 16:15:54;;;;;;;6.72;2.05;;;38.70;45.70;;;;;;4936529;29;20320;-77
2023/09/17 16:18:23;;;;;;;4.50;1.60;;;38.70;46.80;;;;;;4967111;29;20023;-78
2023/09/17 16:20:55;;;;;;;4.18;1.38;;;38.90;46.00;;;;;;4933600;29;20301;-77
2023/09/17 16:23:23;;;;;;;5.43;1.10;;;38.50;45.70;;;;;;4927520;29;20023;-77
2023/09/17 16:25:49;;;;;;;3.20;1.17;;;38.00;46.20;;;;;;4919812;29;20106;-77
2023/09/17 16:28:15;;;;;;;6.15;1.48;;;37.90;46.90;;;;;;4955876;29;20035;-77
2023/09/17 16:30:41;;;;;;;5.63;1.10;;;38.20;47.00;;;;;;4955870;29;20039;-78
2023/09/17 16:33:07;;;;;;;5.90;1.30;;;38.60;46.40;;;;;;4925438;29;20015;-77
2023/09/17 16:35:49;;;;;;;;;;;;;;;;;;;;;
2023/09/17 16:38:15;;;;;;;4.18;1.30;;;37.60;47.50;;;;;;4939184;29;20031;-77
2023/09/17 16:40:43;;;;;;;3.30;1.20;;;36.70;48.40;;;;;;4966818;29;20224;-77
2023/09/17 16:43:09;;;;;;;4.07;1.50;;;35.90;49.40;;;;;;4933027;29;20023;-76
2023/09/17 16:45:35;;;;;;;5.55;1.70;;;35.10;50.60;;;;;;4949668;29;20037;-78
2023/09/17 16:48:01;;;;;;;6.30;1.58;;;34.60;51.60;;;;;;4965948;29;20377;-77
2023/09/17 16:50:30;;;;;;;6.25;1.38;;;34.00;52.30;;;;;;4966659;28;20030;-77
2023/09/17 16:52:56;;;;;;;6.18;1.60;;;33.40;53.60;;;;;;4949118;29;20041;-77
2023/09/17 16:55:43;;;;;;;3.58;1.55;;;33.00;54.20;;;;;;4949696;29;20186;-78
2023/09/17 16:58:26;;;;;;;5.72;1.80;;;32.60;55.00;;;;;;4949401;29;20204;-79
2023/09/17 17:00:58;;;;;;;5.55;1.65;;;32.20;55.60;;;;;;4967110;29;20106;-81
2023/09/17 17:03:24;;;;;;;6.40;1.95;;;31.90;56.20;;;;;;4966621;29;20098;-77
2023/09/17 17:05:50;;;;;;;3.08;1.50;;;31.70;56.70;;;;;;4965303;29;20042;-76
2023/09/17 17:08:15;;;;;;;4.82;1.55;;;31.50;57.10;;;;;;4965917;29;20227;-76
2023/09/17 17:10:42;;;;;;;5.18;1.77;;;31.20;57.70;;;;;;4966617;29;20058;-79
2023/09/17 17:13:08;;;;;;;4.75;1.95;;;31.10;58.20;;;;;;4933033;29;20309;-79
2023/09/17 17:15:36;;;;;;;4.70;1.92;;;30.90;58.60;;;;;;4949290;29;20023;-77
2023/09/17 17:18:02;;;;;;;4.70;1.60;;;30.70;59.00;;;;;;4949078;29;20071;-78
2023/09/17 17:20:30;;;;;;;9.73;2.22;;;30.60;59.50;;;;;;4966046;29;20035;-78
2023/09/17 17:22:57;;;;;;;4.22;1.40;;;30.40;59.70;;;;;;4949182;29;20090;-78
2023/09/17 17:25:29;;;;;;;5.97;1.58;;;30.20;59.90;;;;;;4965988;29;20308;-78
2023/09/17 17:27:54;;;;;;;4.70;1.45;;;30.10;60.20;;;;;;4966027;29;20039;-80
2023/09/17 17:30:21;;;;;;;4.38;1.33;;;29.90;60.60;;;;;;4932646;29;20090;-78
2023/09/17 17:32:47;;;;;;;4.55;1.67;;;29.80;61.00;;;;;;4932915;29;20038;-76
2023/09/17 17:35:14;;;;;;;4.68;1.52;;;29.70;61.20;;;;;;4948401;29;20027;-75
2023/09/17 17:37:39;;;;;;;6.00;1.88;;;29.50;61.30;;;;;;4958314;28;20043;-77
2023/09/17 17:40:09;;;;;;;5.88;2.03;;;29.30;61.60;;;;;;4948390;29;20250;-78
2023/09/17 17:42:34;;;;;;;3.58;1.40;;;29.20;61.90;;;;;;4965672;29;20265;-78
2023/09/17 17:45:00;;;;;;;4.30;1.50;;;29.10;62.10;;;;;;4948051;29;20086;-81
2023/09/17 17:47:27;;;;;;;4.20;1.50;;;29.00;61.90;;;;;;4939877;29;20062;-79
2023/09/17 17:49:58;;;;;;;7.80;1.80;;;28.90;62.20;;;;;;4965143;29;20031;-78
2023/09/17 17:52:46;;;;;;;4.85;1.40;;;28.80;62.30;;;;;;4930302;29;20081;-79
2023/09/17 17:55:13;;;;;;;5.50;1.50;;;28.80;62.60;;;;;;4951035;29;20059;-78
2023/09/17 17:57:38;;;;;;;4.47;1.35;;;28.60;62.70;;;;;;4913775;29;20372;-78
2023/09/17 18:00:10;;;;;;;4.60;1.30;;;28.60;63.00;;;;;;4945905;29;20020;-78
2023/09/17 18:02:41;;;;;;;5.32;1.77;;;28.50;63.20;;;;;;4929969;29;20082;-78
2023/09/17 18:05:44;;;;;;;4.78;1.80;;;28.40;63.50;;;;;;4944701;29;20034;-77
2023/09/17 18:08:12;;;;;;;4.15;1.70;;;28.20;64.30;;;;;;4913760;29;20035;-77
2023/09/17 18:10:41;;;;;;;3.78;1.65;;;28.00;64.80;;;;;;4946069;29;20228;-78
2023/09/17 18:13:07;;;;;;;5.63;1.90;;;27.80;65.30;;;;;;4945548;29;20020;-78
2023/09/17 18:15:33;;;;;;;5.78;1.70;;;27.80;65.80;;;;;;4929415;29;20070;-78
2023/09/17 18:18:07;;;;;;;5.15;1.92;;;27.60;66.20;;;;;;4929007;29;20329;-77
2023/09/17 18:20:48;;;;;;;5.32;1.73;;;27.50;66.50;;;;;;4945945;29;20047;-77
2023/09/17 18:23:16;;;;;;;5.35;1.48;;;27.40;66.60;;;;;;4941430;29;20027;-78
2023/09/17 18:25:51;;;;;;;3.85;1.40;;;27.30;66.80;;;;;;4945380;29;20092;-80
2023/09/17 18:28:23;;;;;;;4.22;1.85;;;27.30;67.00;;;;;;4945354;29;20039;-77
2023/09/17 18:30:54;;;;;;;4.70;2.25;;;27.10;67.70;;;;;;4928627;29;20059;-80
2023/09/17 18:33:19;;;;;;;4.97;1.70;;;27.00;68.00;;;;;;4928493;29;20320;-78
2023/09/17 18:35:45;;;;;;;4.35;1.90;;;26.90;68.20;;;;;;4945613;29;20043;-78
2023/09/17 18:38:11;;;;;;;2.95;1.23;;;26.90;68.20;;;;;;4941820;29;20028;-78
2023/09/17 18:40:38;;;;;;;5.85;1.65;;;26.80;68.40;;;;;;4928640;29;20050;-78
2023/09/17 18:43:28;;;;;;;5.10;1.60;;;26.80;68.60;;;;;;4932387;29;20212;-78
2023/09/17 18:46:07;;;;;;;4.35;1.48;;;26.70;68.90;;;;;;4945980;29;20063;-80
2023/09/17 18:48:40;;;;;;;5.38;1.60;;;26.70;69.00;;;;;;4901957;29;20267;-78
2023/09/17 18:51:14;;;;;;;4.78;1.52;;;26.70;69.30;;;;;;4911723;29;20251;-79
2023/09/17 18:54:08;;;;;;;3.13;1.35;;;26.60;69.40;;;;;;4943106;29;20057;-77
2023/09/17 18:57:04;;;;;;;5.18;1.52;;;26.50;69.70;;;;;;4934609;29;20328;-78
2023/09/17 18:59:44;;;;;;;6.00;1.45;;;26.40;70.00;;;;;;4945296;29;20039;-79
2023/09/17 19:02:13;;;;;;;5.32;1.40;;;26.40;70.30;;;;;;4944396;29;20032;-78
2023/09/17 19:04:39;;;;;;;3.95;1.42;;;26.40;70.40;;;;;;4945597;29;20222;-76
2023/09/17 19:07:07;;;;;;;4.50;1.60;;;26.40;70.70;;;;;;4950566;29;20027;-79
2023/09/17 19:09:38;;;;;;;6.10;2.13;;;26.20;71.10;;;;;;4932223;29;20053;-79
2023/09/17 19:12:09;;;;;;;5.82;1.95;;;26.10;71.30;;;;;;4955284;29;20035;-80
2023/09/17 19:14:50;;;;;;;5.97;1.70;;;26.10;72.30;;;;;;4933527;29;20043;-79
2023/09/17 19:17:16;;;;;;;3.70;1.75;;;25.90;72.00;;;;;;4954940;29;20032;-78
2023/09/17 19:19:53;;;;;;;5.10;2.10;;;25.80;72.40;;;;;;4953247;29;20050;-78
2023/09/17 19:22:32;;;;;;;7.35;2.10;;;25.70;72.70;;;;;;4955768;29;20043;-78
2023/09/17 19:24:58;;;;;;;5.10;1.67;;;25.60;73.20;;;;;;4956642;29;20023;-78
2023/09/17 19:27:24;;;;;;;4.68;1.83;;;25.50;73.60;;;;;;4949175;29;20032;-77
2023/09/17 19:29:52;;;;;;;5.50;2.60;;;25.40;74.20;;;;;;4946270;28;20015;-78
2023/09/17 19:32:18;;;;;;;;;;;25.30;74.80;;;;;;4978669;29;20054;-77
2023/09/17 19:34:46;;;;;;;8.77;3.40;;;25.20;75.00;;;;;;4973725;29;19918;-77
2023/09/17 19:37:15;;;;;;;4.18;2.22;;;25.10;75.20;;;;;;4974391;29;20075;-80
2023/09/17 19:39:41;;;;;;;7.07;2.65;;;25.00;75.50;;;;;;4953302;29;20031;-80